Private Wetterstation Sandau
Wetterdaten: Samstag, 21.01.2012
Datum Zeit Temp. A. Feuchte A. Luftdruck Regen Wind Richtung Richtung Taupunkt Windchill
21.01.2012 00:02 1,5 C 89 % 1011,7 hPa 0,0 l/m 11,9 km/h (2 Bft) W 270 -0,1 C -2,0 C
21.01.2012 00:07 1,5 C 90 % 1011,7 hPa 0,0 l/m 16,9 km/h (3 Bft) W 270 0,0 C -2,9 C
21.01.2012 00:12 1,5 C 90 % 1011,7 hPa 0,0 l/m 11,2 km/h (2 Bft) W 270 0,0 C -1,8 C
21.01.2012 00:17 1,5 C 90 % 1011,7 hPa 0,0 l/m 6,8 km/h (2 Bft) W 270 0,0 C -0,6 C
21.01.2012 00:22 1,6 C 90 % 1011,8 hPa 0,0 l/m 14,8 km/h (3 Bft) W 270 0,1 C -2,4 C
21.01.2012 00:27 1,6 C 90 % 1011,7 hPa 0,0 l/m 13,7 km/h (3 Bft) W 270 0,1 C -2,2 C
21.01.2012 00:32 1,6 C 90 % 1011,8 hPa 0,0 l/m 0,0 km/h (0 Bft) W-SW 247 0,1 C 1,6 C
21.01.2012 00:37 1,6 C 90 % 1011,8 hPa 0,0 l/m 8,3 km/h (2 Bft) W-SW 247 0,1 C -0,9 C
21.01.2012 00:42 1,8 C 90 % 1012,0 hPa 0,0 l/m 20,9 km/h (4 Bft) W-SW 247 0,3 C -3,1 C
21.01.2012 00:47 1,8 C 90 % 1011,7 hPa 0,0 l/m 11,5 km/h (2 Bft) W 270 0,3 C -1,5 C
21.01.2012 00:52 1,8 C 90 % 1011,9 hPa 0,0 l/m 8,6 km/h (2 Bft) W 270 0,3 C -0,8 C
21.01.2012 00:57 1,8 C 90 % 1011,8 hPa 0,0 l/m 8,3 km/h (2 Bft) W-SW 247 0,3 C -0,7 C
21.01.2012 01:02 1,9 C 90 % 1011,8 hPa 0,0 l/m 11,9 km/h (2 Bft) W 270 0,4 C -1,5 C
21.01.2012 01:07 1,9 C 90 % 1011,9 hPa 0,0 l/m 11,2 km/h (2 Bft) W-SW 247 0,4 C -1,3 C
21.01.2012 01:12 1,9 C 90 % 1011,8 hPa 0,0 l/m 10,4 km/h (2 Bft) W-SW 247 0,4 C -1,1 C
21.01.2012 01:17 1,9 C 90 % 1012,0 hPa 0,0 l/m 14,4 km/h (3 Bft) W-SW 247 0,4 C -2,0 C
21.01.2012 01:22 2,1 C 90 % 1011,9 hPa 0,0 l/m 11,5 km/h (2 Bft) W-SW 247 0,6 C -1,2 C
21.01.2012 01:27 2,1 C 90 % 1012,0 hPa 0,0 l/m 9,4 km/h (2 Bft) W-NW 292 0,6 C -0,7 C
21.01.2012 01:32 2,1 C 90 % 1012,1 hPa 0,0 l/m 18,0 km/h (3 Bft) W 270 0,6 C -2,3 C
21.01.2012 01:37 2,1 C 90 % 1011,9 hPa 0,0 l/m 19,1 km/h (3 Bft) W-SW 247 0,6 C -2,5 C
21.01.2012 01:42 2,2 C 90 % 1012,0 hPa 0,0 l/m 19,1 km/h (3 Bft) W-SW 247 0,7 C -2,3 C
21.01.2012 01:47 2,3 C 90 % 1012,1 hPa 0,0 l/m 10,4 km/h (2 Bft) W 270 0,8 C -0,7 C
21.01.2012 01:52 2,3 C 89 % 1012,1 hPa 0,0 l/m 10,8 km/h (2 Bft) W 270 0,7 C -0,8 C
21.01.2012 01:57 2,3 C 89 % 1012,1 hPa 0,0 l/m 7,6 km/h (2 Bft) W-SW 247 0,7 C 0,1 C
21.01.2012 02:02 2,3 C 89 % 1012,3 hPa 0,0 l/m 7,2 km/h (2 Bft) W-NW 292 0,7 C 0,2 C
21.01.2012 02:07 2,4 C 89 % 1012,2 hPa 0,0 l/m 8,3 km/h (2 Bft) W 270 0,8 C -0,0 C
21.01.2012 02:12 2,4 C 89 % 1012,3 hPa 0,0 l/m 9,7 km/h (2 Bft) W 270 0,8 C -0,4 C
21.01.2012 02:17 2,4 C 89 % 1012,4 hPa 0,0 l/m 11,5 km/h (2 Bft) W-SW 247 0,8 C -0,8 C
21.01.2012 02:22 2,4 C 89 % 1012,3 hPa 0,0 l/m 14,4 km/h (3 Bft) SW 225 0,8 C -1,4 C
21.01.2012 02:27 2,5 C 89 % 1012,2 hPa 0,0 l/m 16,2 km/h (3 Bft) W 270 0,9 C -1,5 C
21.01.2012 02:32 2,5 C 89 % 1012,3 hPa 0,0 l/m 6,1 km/h (2 Bft) W 270 0,9 C 0,8 C
21.01.2012 02:37 2,5 C 89 % 1012,3 hPa 0,0 l/m 5,8 km/h (2 Bft) W 270 0,9 C 0,9 C
21.01.2012 02:42 2,5 C 89 % 1012,1 hPa 0,0 l/m 17,3 km/h (3 Bft) W 270 0,9 C -1,7 C
21.01.2012 02:47 2,5 C 89 % 1012,1 hPa 0,0 l/m 9,4 km/h (2 Bft) W-SW 247 0,9 C -0,2 C
21.01.2012 02:52 2,6 C 89 % 1012,3 hPa 0,0 l/m 16,6 km/h (3 Bft) SW 225 1,0 C -1,5 C
21.01.2012 02:57 2,6 C 89 % 1012,3 hPa 0,0 l/m 10,1 km/h (2 Bft) W-NW 292 1,0 C -0,2 C
21.01.2012 03:02 2,6 C 89 % 1012,2 hPa 0,0 l/m 12,6 km/h (3 Bft) W-NW 292 1,0 C -0,8 C
21.01.2012 03:07 2,6 C 89 % 1012,2 hPa 0,0 l/m 19,1 km/h (3 Bft) W-NW 292 1,0 C -1,8 C
21.01.2012 03:12 2,6 C 88 % 1012,3 hPa 0,0 l/m 8,6 km/h (2 Bft) W-NW 292 0,8 C 0,1 C
21.01.2012 03:17 2,5 C 88 % 1012,4 hPa 0,0 l/m 5,4 km/h (1 Bft) W 270 0,7 C 1,1 C
21.01.2012 03:22 2,5 C 88 % 1012,3 hPa 0,0 l/m 8,3 km/h (2 Bft) W-SW 247 0,7 C 0,1 C
21.01.2012 03:27 2,5 C 88 % 1012,4 hPa 0,0 l/m 9,0 km/h (2 Bft) W-NW 292 0,7 C -0,1 C
21.01.2012 03:32 2,5 C 88 % 1012,3 hPa 0,0 l/m 9,4 km/h (2 Bft) W-SW 247 0,7 C -0,2 C
21.01.2012 03:37 2,6 C 88 % 1012,2 hPa 0,0 l/m 13,3 km/h (3 Bft) S 180 0,8 C -0,9 C
21.01.2012 03:42 2,5 C 88 % 1012,1 hPa 0,0 l/m 5,8 km/h (2 Bft) W-NW 292 0,7 C 0,9 C
21.01.2012 03:47 2,5 C 88 % 1011,9 hPa 0,0 l/m 6,1 km/h (2 Bft) NW 315 0,7 C 0,8 C
21.01.2012 03:52 2,5 C 88 % 1012,0 hPa 0,0 l/m 6,8 km/h (2 Bft) W-SW 247 0,7 C 0,6 C
21.01.2012 03:57 2,5 C 88 % 1012,0 hPa 0,0 l/m 15,5 km/h (3 Bft) W-SW 247 0,7 C -1,4 C
21.01.2012 04:02 2,5 C 88 % 1012,0 hPa 0,0 l/m 13,7 km/h (3 Bft) SW 225 0,7 C -1,1 C
21.01.2012 04:07 2,5 C 88 % 1011,9 hPa 0,0 l/m 8,3 km/h (2 Bft) SW 225 0,7 C 0,1 C
21.01.2012 04:12 2,5 C 88 % 1012,0 hPa 0,0 l/m 15,1 km/h (3 Bft) W 270 0,7 C -1,4 C
21.01.2012 04:17 2,5 C 88 % 1012,0 hPa 0,0 l/m 6,8 km/h (2 Bft) W 270 0,7 C 0,6 C
21.01.2012 04:22 2,5 C 88 % 1011,9 hPa 0,0 l/m 5,8 km/h (2 Bft) W-SW 247 0,7 C 0,9 C
21.01.2012 04:27 2,5 C 88 % 1012,0 hPa 0,0 l/m 12,6 km/h (3 Bft) W-NW 292 0,7 C -0,9 C
21.01.2012 04:32 2,5 C 89 % 1011,9 hPa 0,0 l/m 5,0 km/h (1 Bft) W 270 0,9 C 1,2 C
21.01.2012 04:37 2,5 C 89 % 1011,9 hPa 0,0 l/m 7,9 km/h (2 Bft) W 270 0,9 C 0,2 C
21.01.2012 04:42 2,6 C 89 % 1011,9 hPa 0,0 l/m 6,5 km/h (2 Bft) W-NW 292 1,0 C 0,8 C
21.01.2012 04:47 2,6 C 89 % 1011,7 hPa 0,0 l/m 22,0 km/h (4 Bft) W 270 1,0 C -2,2 C
21.01.2012 04:52 2,6 C 89 % 1011,7 hPa 0,0 l/m 4,3 km/h (1 Bft) W 270 1,0 C 2,6 C
21.01.2012 04:57 2,6 C 89 % 1011,7 hPa 0,0 l/m 18,0 km/h (3 Bft) W-SW 247 1,0 C -1,7 C
21.01.2012 05:02 2,7 C 89 % 1011,4 hPa 0,0 l/m 14,4 km/h (3 Bft) W 270 1,1 C -1,0 C
21.01.2012 05:07 2,7 C 89 % 1011,2 hPa 0,0 l/m 8,6 km/h (2 Bft) W-SW 247 1,1 C 0,3 C
21.01.2012 05:12 2,7 C 89 % 1011,1 hPa 0,0 l/m 8,3 km/h (2 Bft) W-NW 292 1,1 C 0,3 C
21.01.2012 05:17 2,7 C 89 % 1010,9 hPa 0,0 l/m 11,5 km/h (2 Bft) W-SW 247 1,1 C -0,4 C
21.01.2012 05:22 2,7 C 89 % 1010,6 hPa 0,0 l/m 19,1 km/h (3 Bft) SW 225 1,1 C -1,7 C
21.01.2012 05:27 2,7 C 89 % 1010,6 hPa 0,0 l/m 24,8 km/h (4 Bft) W-SW 247 1,1 C -2,4 C
21.01.2012 05:32 2,8 C 89 % 1010,6 hPa 0,0 l/m 14,4 km/h (3 Bft) W-SW 247 1,2 C -0,9 C
21.01.2012 05:37 2,8 C 89 % 1010,7 hPa 0,0 l/m 15,8 km/h (3 Bft) W 270 1,2 C -1,1 C
21.01.2012 05:42 2,8 C 89 % 1010,7 hPa 0,0 l/m 6,5 km/h (2 Bft) SW 225 1,2 C 1,0 C
21.01.2012 05:47 2,8 C 89 % 1010,7 hPa 0,0 l/m 25,9 km/h (4 Bft) W-SW 247 1,2 C -2,4 C
21.01.2012 05:52 2,8 C 89 % 1010,7 hPa 0,0 l/m 10,4 km/h (2 Bft) W-SW 247 1,2 C -0,1 C
21.01.2012 05:57 2,8 C 89 % 1010,7 hPa 0,0 l/m 13,7 km/h (3 Bft) W-SW 247 1,2 C -0,7 C
21.01.2012 06:02 2,8 C 89 % 1010,5 hPa 0,0 l/m 5,4 km/h (1 Bft) W 270 1,2 C 1,4 C
21.01.2012 06:07 2,8 C 89 % 1010,5 hPa 0,0 l/m 15,5 km/h (3 Bft) SW 225 1,2 C -1,0 C
21.01.2012 06:12 2,8 C 89 % 1010,4 hPa 0,0 l/m 4,7 km/h (1 Bft) W 270 1,2 C 1,7 C
21.01.2012 06:17 2,8 C 89 % 1010,4 hPa 0,0 l/m 17,3 km/h (3 Bft) W-SW 247 1,2 C -1,3 C
21.01.2012 06:22 2,8 C 89 % 1010,6 hPa 0,0 l/m 6,1 km/h (2 Bft) W 270 1,2 C 1,2 C
21.01.2012 06:27 2,8 C 89 % 1010,4 hPa 0,0 l/m 8,3 km/h (2 Bft) W-SW 247 1,2 C 0,5 C
21.01.2012 06:32 2,8 C 89 % 1010,3 hPa 0,0 l/m 10,8 km/h (2 Bft) SW 225 1,2 C -0,2 C
21.01.2012 06:37 2,8 C 89 % 1010,3 hPa 0,0 l/m 10,8 km/h (2 Bft) W-SW 247 1,2 C -0,2 C
21.01.2012 06:42 2,8 C 89 % 1010,6 hPa 0,0 l/m 10,8 km/h (2 Bft) W-NW 292 1,2 C -0,2 C
21.01.2012 06:47 2,8 C 89 % 1010,4 hPa 0,0 l/m 8,6 km/h (2 Bft) W 270 1,2 C 0,4 C
21.01.2012 06:52 2,8 C 89 % 1010,5 hPa 0,0 l/m 13,7 km/h (3 Bft) SW 225 1,2 C -0,7 C
21.01.2012 06:57 2,8 C 89 % 1010,3 hPa 0,0 l/m 10,4 km/h (2 Bft) S-SW 202 1,2 C -0,1 C
21.01.2012 07:02 2,8 C 89 % 1010,0 hPa 0,0 l/m 14,8 km/h (3 Bft) W-SW 247 1,2 C -0,9 C
21.01.2012 07:07 2,8 C 89 % 1010,2 hPa 0,0 l/m 11,9 km/h (2 Bft) W 270 1,2 C -0,4 C
21.01.2012 07:12 2,8 C 89 % 1010,2 hPa 0,0 l/m 14,8 km/h (3 Bft) S-SW 202 1,2 C -0,9 C
21.01.2012 07:17 2,8 C 89 % 1010,1 hPa 0,0 l/m 4,7 km/h (1 Bft) W-SW 247 1,2 C 1,7 C
21.01.2012 07:22 2,8 C 89 % 1009,9 hPa 0,0 l/m 11,5 km/h (2 Bft) W-SW 247 1,2 C -0,3 C
21.01.2012 07:27 2,8 C 89 % 1010,0 hPa 0,0 l/m 5,4 km/h (1 Bft) W-SW 247 1,2 C 1,4 C
21.01.2012 07:32 2,8 C 89 % 1010,0 hPa 0,0 l/m 7,9 km/h (2 Bft) W-SW 247 1,2 C 0,6 C
21.01.2012 07:37 2,8 C 89 % 1009,9 hPa 0,0 l/m 5,4 km/h (1 Bft) SW 225 1,2 C 1,4 C
21.01.2012 07:42 2,8 C 89 % 1009,9 hPa 0,0 l/m 7,6 km/h (2 Bft) SW 225 1,2 C 0,7 C
21.01.2012 07:47 2,9 C 89 % 1009,9 hPa 0,0 l/m 11,5 km/h (2 Bft) W 270 1,3 C -0,2 C
21.01.2012 07:52 2,9 C 89 % 1009,8 hPa 0,0 l/m 6,5 km/h (2 Bft) W-SW 247 1,3 C 1,1 C
21.01.2012 07:57 2,9 C 89 % 1009,9 hPa 0,0 l/m 9,7 km/h (2 Bft) SW 225 1,3 C 0,2 C
21.01.2012 08:02 2,9 C 89 % 1009,6 hPa 0,0 l/m 11,2 km/h (2 Bft) SW 225 1,3 C -0,1 C
21.01.2012 08:07 2,9 C 89 % 1009,8 hPa 0,0 l/m 10,4 km/h (2 Bft) W-SW 247 1,3 C 0,1 C
21.01.2012 08:12 3,0 C 89 % 1009,7 hPa 0,0 l/m 4,7 km/h (1 Bft) W-SW 247 1,4 C 1,9 C
21.01.2012 08:17 3,0 C 89 % 1009,5 hPa 0,0 l/m 9,7 km/h (2 Bft) W-SW 247 1,4 C 0,3 C
21.01.2012 08:22 3,0 C 89 % 1009,5 hPa 0,0 l/m 6,5 km/h (2 Bft) S 180 1,4 C 1,2 C
21.01.2012 08:27 3,0 C 89 % 1009,3 hPa 0,0 l/m 5,8 km/h (2 Bft) SW 225 1,4 C 1,5 C
21.01.2012 08:32 3,0 C 89 % 1009,4 hPa 0,0 l/m 18,0 km/h (3 Bft) S-SW 202 1,4 C -1,2 C
21.01.2012 08:37 3,0 C 89 % 1008,9 hPa 0,0 l/m 8,3 km/h (2 Bft) S-SW 202 1,4 C 0,7 C
21.01.2012 08:42 2,9 C 89 % 1009,1 hPa 0,0 l/m 13,7 km/h (3 Bft) SW 225 1,3 C -0,6 C
21.01.2012 08:47 2,9 C 88 % 1008,7 hPa 0,0 l/m 8,3 km/h (2 Bft) S-SW 202 1,1 C 0,6 C
21.01.2012 08:52 2,9 C 88 % 1008,8 hPa 0,0 l/m 11,2 km/h (2 Bft) W 270 1,1 C -0,1 C
21.01.2012 08:57 2,9 C 88 % 1008,6 hPa 0,0 l/m 9,0 km/h (2 Bft) S-SW 202 1,1 C 0,4 C
21.01.2012 09:02 2,9 C 88 % 1008,3 hPa 0,0 l/m 9,4 km/h (2 Bft) S-SW 202 1,1 C 0,3 C
21.01.2012 09:07 2,9 C 88 % 1008,3 hPa 0,0 l/m 11,5 km/h (2 Bft) SW 225 1,1 C -0,2 C
21.01.2012 09:12 2,9 C 88 % 1008,1 hPa 0,0 l/m 14,4 km/h (3 Bft) S-SW 202 1,1 C -0,7 C
21.01.2012 09:17 2,9 C 88 % 1008,1 hPa 0,0 l/m 3,2 km/h (1 Bft) S-SW 202 1,1 C 2,9 C
21.01.2012 09:22 2,9 C 88 % 1008,0 hPa 0,0 l/m 12,6 km/h (3 Bft) S 180 1,1 C -0,4 C
21.01.2012 09:27 2,9 C 88 % 1008,0 hPa 0,0 l/m 11,2 km/h (2 Bft) SW 225 1,1 C -0,1 C
21.01.2012 09:32 2,9 C 88 % 1007,8 hPa 0,0 l/m 11,9 km/h (2 Bft) S 180 1,1 C -0,3 C
21.01.2012 09:37 2,9 C 88 % 1007,6 hPa 0,0 l/m 9,7 km/h (2 Bft) S 180 1,1 C 0,2 C
21.01.2012 09:42 3,0 C 88 % 1007,6 hPa 0,0 l/m 10,8 km/h (2 Bft) SW 225 1,2 C 0,1 C
21.01.2012 09:47 3,0 C 88 % 1007,6 hPa 0,0 l/m 6,8 km/h (2 Bft) S-SW 202 1,2 C 1,1 C
21.01.2012 09:52 3,0 C 88 % 1007,5 hPa 0,0 l/m 15,1 km/h (3 Bft) SW 225 1,2 C -0,7 C
21.01.2012 09:57 3,0 C 87 % 1007,1 hPa 0,0 l/m 13,7 km/h (3 Bft) S-SW 202 1,1 C -0,5 C
21.01.2012 10:02 3,1 C 87 % 1007,3 hPa 0,0 l/m 11,2 km/h (2 Bft) S 180 1,2 C 0,1 C
21.01.2012 10:07 3,0 C 87 % 1007,0 hPa 0,0 l/m 14,0 km/h (3 Bft) S-SW 202 1,1 C -0,5 C
21.01.2012 10:12 3,0 C 87 % 1006,8 hPa 0,0 l/m 14,0 km/h (3 Bft) SW 225 1,1 C -0,5 C
21.01.2012 10:17 3,0 C 87 % 1006,8 hPa 0,0 l/m 12,6 km/h (3 Bft) SW 225 1,1 C -0,3 C
21.01.2012 10:22 3,1 C 87 % 1006,7 hPa 0,0 l/m 15,1 km/h (3 Bft) S 180 1,2 C -0,6 C
21.01.2012 10:27 3,1 C 87 % 1006,5 hPa 0,0 l/m 14,0 km/h (3 Bft) S-SW 202 1,2 C -0,4 C
21.01.2012 10:32 3,1 C 87 % 1006,1 hPa 0,0 l/m 16,2 km/h (3 Bft) S-SW 202 1,2 C -0,8 C
21.01.2012 10:37 3,1 C 87 % 1006,1 hPa 0,0 l/m 10,1 km/h (2 Bft) S-SO 157 1,2 C 0,4 C
21.01.2012 10:42 3,1 C 87 % 1006,0 hPa 0,0 l/m 16,9 km/h (3 Bft) S-SO 157 1,2 C -0,9 C
21.01.2012 10:47 2,9 C 87 % 1005,6 hPa 0,5 l/m 21,6 km/h (4 Bft) SW 225 1,0 C -1,8 C
21.01.2012 10:52 2,9 C 87 % 1005,8 hPa 0,0 l/m 22,7 km/h (4 Bft) S 180 1,0 C -1,9 C
21.01.2012 10:57 2,9 C 87 % 1005,5 hPa 0,0 l/m 16,6 km/h (3 Bft) S-SW 202 1,0 C -1,1 C
21.01.2012 11:02 2,8 C 88 % 1005,2 hPa 0,0 l/m 14,0 km/h (3 Bft) SW 225 1,0 C -0,8 C
21.01.2012 11:07 2,7 C 88 % 1005,0 hPa 0,0 l/m 19,1 km/h (3 Bft) W-SW 247 0,9 C -1,7 C
21.01.2012 11:12 2,7 C 88 % 1004,8 hPa 0,0 l/m 6,5 km/h (2 Bft) S-SW 202 0,9 C 0,9 C
21.01.2012 11:17 2,6 C 88 % 1004,8 hPa 0,0 l/m 10,8 km/h (2 Bft) S-SW 202 0,8 C -0,4 C
21.01.2012 11:22 2,6 C 88 % 1004,4 hPa 0,0 l/m 14,4 km/h (3 Bft) S-SW 202 0,8 C -1,1 C
21.01.2012 11:27 2,6 C 88 % 1004,5 hPa 0,5 l/m 22,0 km/h (4 Bft) S 180 0,8 C -2,2 C
21.01.2012 11:32 2,5 C 88 % 1004,3 hPa 0,0 l/m 14,4 km/h (3 Bft) S 180 0,7 C -1,2 C
21.01.2012 11:37 2,4 C 88 % 1004,0 hPa 0,0 l/m 24,1 km/h (4 Bft) S 180 0,6 C -2,7 C
21.01.2012 11:42 2,4 C 88 % 1003,9 hPa 0,0 l/m 5,4 km/h (1 Bft) S 180 0,6 C 1,0 C
21.01.2012 11:47 2,4 C 88 % 1003,6 hPa 0,0 l/m 12,2 km/h (2 Bft) S-SO 157 0,6 C -0,9 C
21.01.2012 11:52 2,4 C 89 % 1003,4 hPa 0,0 l/m 13,0 km/h (3 Bft) S-SW 202 0,8 C -1,1 C
21.01.2012 11:57 2,3 C 89 % 1003,2 hPa 0,0 l/m 8,3 km/h (2 Bft) S 180 0,7 C -0,1 C
21.01.2012 12:02 2,3 C 89 % 1002,9 hPa 0,0 l/m 29,5 km/h (5 Bft) S 180 0,7 C -3,4 C
21.01.2012 12:07 2,3 C 89 % 1002,4 hPa 0,0 l/m 20,9 km/h (4 Bft) S 180 0,7 C -2,5 C
21.01.2012 12:12 2,3 C 89 % 1002,5 hPa 0,0 l/m 10,1 km/h (2 Bft) S-SO 157 0,7 C -0,6 C
21.01.2012 12:17 2,3 C 89 % 1002,1 hPa 0,0 l/m 16,6 km/h (3 Bft) S-SO 157 0,7 C -1,8 C
21.01.2012 12:22 2,2 C 89 % 1001,8 hPa 0,0 l/m 11,2 km/h (2 Bft) S-SW 202 0,6 C -1,0 C
21.01.2012 12:27 2,1 C 89 % 1001,6 hPa 0,5 l/m 16,9 km/h (3 Bft) S 180 0,5 C -2,1 C
21.01.2012 12:32 2,1 C 89 % 1001,4 hPa 0,0 l/m 8,6 km/h (2 Bft) S 180 0,5 C -0,4 C
21.01.2012 12:37 1,9 C 89 % 1001,3 hPa 0,0 l/m 26,3 km/h (4 Bft) S 180 0,3 C -3,6 C
21.01.2012 12:42 1,9 C 89 % 1001,1 hPa 0,0 l/m 14,4 km/h (3 Bft) S-SW 202 0,3 C -2,0 C
21.01.2012 12:47 1,9 C 89 % 1000,9 hPa 0,0 l/m 14,0 km/h (3 Bft) S 180 0,3 C -1,9 C
21.01.2012 12:52 1,9 C 90 % 1000,5 hPa 0,0 l/m 19,1 km/h (3 Bft) S 180 0,4 C -2,7 C
21.01.2012 12:57 1,8 C 90 % 1000,3 hPa 0,0 l/m 27,4 km/h (4 Bft) S-SO 157 0,3 C -3,9 C
21.01.2012 13:02 1,8 C 90 % 1000,3 hPa 0,0 l/m 29,2 km/h (5 Bft) S 180 0,3 C -4,0 C
21.01.2012 13:07 1,8 C 90 % 999,8 hPa 0,5 l/m 9,7 km/h (2 Bft) S 180 0,3 C -1,1 C
21.01.2012 13:12 1,8 C 90 % 999,9 hPa 0,0 l/m 13,0 km/h (3 Bft) S-SO 157 0,3 C -1,8 C
21.01.2012 13:17 1,8 C 90 % 999,7 hPa 0,0 l/m 23,0 km/h (4 Bft) S-SW 202 0,3 C -3,4 C
21.01.2012 13:22 1,9 C 90 % 999,4 hPa 0,0 l/m 14,0 km/h (3 Bft) SO 135 0,4 C -1,9 C
21.01.2012 13:27 1,9 C 90 % 999,1 hPa 0,0 l/m 25,2 km/h (4 Bft) S-SW 202 0,4 C -3,5 C
21.01.2012 13:32 1,9 C 90 % 999,1 hPa 0,5 l/m 18,4 km/h (3 Bft) W-SW 247 0,4 C -2,6 C
21.01.2012 13:37 2,1 C 90 % 998,7 hPa 0,0 l/m 19,1 km/h (3 Bft) SW 225 0,6 C -2,5 C
21.01.2012 13:42 2,1 C 90 % 998,4 hPa 0,0 l/m 9,4 km/h (2 Bft) S-SW 202 0,6 C -0,7 C
21.01.2012 13:47 2,1 C 90 % 998,4 hPa 0,0 l/m 18,4 km/h (3 Bft) S 180 0,6 C -2,4 C
21.01.2012 13:52 2,3 C 90 % 998,2 hPa 0,0 l/m 19,8 km/h (3 Bft) S-SW 202 0,8 C -2,3 C
21.01.2012 13:57 2,3 C 90 % 998,0 hPa 0,0 l/m 28,8 km/h (4 Bft) W-SW 247 0,8 C -3,4 C
21.01.2012 14:02 2,4 C 90 % 997,7 hPa 0,0 l/m 22,0 km/h (4 Bft) SW 225 0,9 C -2,5 C
21.01.2012 14:07 2,4 C 90 % 997,6 hPa 0,0 l/m 18,4 km/h (3 Bft) W-SW 247 0,9 C -2,0 C
21.01.2012 14:12 2,4 C 90 % 997,4 hPa 0,0 l/m 11,5 km/h (2 Bft) SW 225 0,9 C -0,8 C
21.01.2012 14:17 2,4 C 90 % 997,4 hPa 0,0 l/m 22,7 km/h (4 Bft) S-SW 202 0,9 C -2,6 C
21.01.2012 14:22 2,5 C 90 % 997,1 hPa 0,0 l/m 28,8 km/h (4 Bft) S-SW 202 1,0 C -3,1 C
21.01.2012 14:27 2,5 C 90 % 997,1 hPa 0,0 l/m 22,7 km/h (4 Bft) S 180 1,0 C -2,4 C
21.01.2012 14:32 2,6 C 91 % 996,9 hPa 0,0 l/m 18,0 km/h (3 Bft) SW 225 1,3 C -1,7 C
21.01.2012 14:37 2,7 C 91 % 996,7 hPa 0,0 l/m 25,6 km/h (4 Bft) SW 225 1,4 C -2,5 C
21.01.2012 14:42 2,8 C 91 % 996,6 hPa 0,0 l/m 11,5 km/h (2 Bft) S-SW 202 1,5 C -0,3 C
21.01.2012 14:47 2,8 C 91 % 996,9 hPa 0,0 l/m 16,6 km/h (3 Bft) W 270 1,5 C -1,2 C
21.01.2012 14:52 2,9 C 91 % 996,6 hPa 0,0 l/m 16,9 km/h (3 Bft) S-SW 202 1,6 C -1,1 C
21.01.2012 14:57 3,0 C 91 % 996,5 hPa 0,0 l/m 21,2 km/h (4 Bft) S 180 1,7 C -1,6 C
21.01.2012 15:02 3,1 C 91 % 996,8 hPa 0,0 l/m 8,6 km/h (2 Bft) W-SW 247 1,8 C 0,7 C
21.01.2012 15:07 3,1 C 91 % 996,7 hPa 0,0 l/m 18,0 km/h (3 Bft) S-SW 202 1,8 C -1,1 C
21.01.2012 15:12 3,3 C 91 % 996,4 hPa 0,0 l/m 16,9 km/h (3 Bft) S-SW 202 2,0 C -0,6 C
21.01.2012 15:17 3,4 C 91 % 996,5 hPa 0,0 l/m 27,7 km/h (4 Bft) W-SW 247 2,1 C -1,8 C
21.01.2012 15:22 3,5 C 91 % 996,5 hPa 0,0 l/m 8,6 km/h (2 Bft) SW 225 2,2 C 1,2 C
21.01.2012 15:27 3,6 C 91 % 996,4 hPa 0,0 l/m 11,2 km/h (2 Bft) W 270 2,3 C 0,7 C
21.01.2012 15:32 3,6 C 91 % 996,4 hPa 0,0 l/m 16,9 km/h (3 Bft) W-SW 247 2,3 C -0,3 C
21.01.2012 15:37 3,6 C 91 % 996,4 hPa 0,0 l/m 7,2 km/h (2 Bft) W 270 2,3 C 1,7 C
21.01.2012 15:42 3,6 C 91 % 996,2 hPa 0,5 l/m 14,8 km/h (3 Bft) S-SW 202 2,3 C 0,1 C
21.01.2012 15:47 3,6 C 91 % 995,9 hPa 0,0 l/m 6,8 km/h (2 Bft) S-SW 202 2,3 C 1,8 C
21.01.2012 15:52 3,8 C 91 % 995,7 hPa 0,0 l/m 22,3 km/h (4 Bft) S-SW 202 2,5 C -0,7 C
21.01.2012 15:57 3,8 C 91 % 995,8 hPa 0,0 l/m 10,8 km/h (2 Bft) SW 225 2,5 C 1,0 C
21.01.2012 16:02 3,9 C 91 % 995,6 hPa 0,0 l/m 19,1 km/h (3 Bft) SW 225 2,6 C -0,2 C
21.01.2012 16:07 3,9 C 91 % 995,7 hPa 0,0 l/m 18,4 km/h (3 Bft) W 270 2,6 C -0,1 C
21.01.2012 16:12 3,9 C 91 % 995,6 hPa 0,0 l/m 11,5 km/h (2 Bft) S-SW 202 2,6 C 1,0 C
21.01.2012 16:17 4,0 C 92 % 995,6 hPa 0,0 l/m 11,2 km/h (2 Bft) SW 225 2,8 C 1,2 C
21.01.2012 16:22 4,1 C 92 % 995,4 hPa 0,0 l/m 18,4 km/h (3 Bft) W-SW 247 2,9 C 0,1 C
21.01.2012 16:27 4,2 C 92 % 995,4 hPa 0,0 l/m 14,8 km/h (3 Bft) W-SW 247 3,0 C 0,8 C
21.01.2012 16:32 4,3 C 92 % 995,4 hPa 0,0 l/m 12,2 km/h (2 Bft) SW 225 3,1 C 1,4 C
21.01.2012 16:37 4,3 C 92 % 995,3 hPa 0,0 l/m 8,3 km/h (2 Bft) W 270 3,1 C 2,2 C
21.01.2012 16:42 4,4 C 92 % 995,3 hPa 0,0 l/m 19,8 km/h (3 Bft) SW 225 3,2 C 0,3 C
21.01.2012 16:47 4,4 C 92 % 995,3 hPa 0,0 l/m 18,0 km/h (3 Bft) NW 315 3,2 C 0,6 C
21.01.2012 16:52 4,6 C 92 % 995,4 hPa 0,0 l/m 33,8 km/h (5 Bft) W-NW 292 3,4 C -0,8 C
21.01.2012 16:57 4,8 C 92 % 995,4 hPa 0,0 l/m 16,9 km/h (3 Bft) W-NW 292 3,6 C 1,2 C
21.01.2012 17:02 4,9 C 91 % 995,5 hPa 0,0 l/m 15,1 km/h (3 Bft) W 270 3,6 C 1,6 C
21.01.2012 17:07 5,0 C 91 % 995,3 hPa 0,0 l/m 14,4 km/h (3 Bft) W 270 3,7 C 1,8 C
21.01.2012 17:12 5,1 C 91 % 995,5 hPa 0,0 l/m 19,8 km/h (3 Bft) W-SW 247 3,8 C 1,2 C
21.01.2012 17:17 5,1 C 91 % 995,5 hPa 0,0 l/m 7,9 km/h (2 Bft) W 270 3,8 C 3,3 C
21.01.2012 17:22 5,1 C 91 % 995,5 hPa 0,0 l/m 10,1 km/h (2 Bft) W 270 3,8 C 2,8 C
21.01.2012 17:27 5,1 C 91 % 995,6 hPa 0,0 l/m 10,1 km/h (2 Bft) W 270 3,8 C 2,8 C
21.01.2012 17:32 5,1 C 90 % 995,6 hPa 0,0 l/m 13,3 km/h (3 Bft) W 270 3,6 C 2,1 C
21.01.2012 17:37 5,1 C 90 % 995,7 hPa 0,0 l/m 13,3 km/h (3 Bft) W-NW 292 3,6 C 2,1 C
21.01.2012 17:42 5,1 C 90 % 995,7 hPa 0,0 l/m 18,0 km/h (3 Bft) W 270 3,6 C 1,4 C
21.01.2012 17:47 5,1 C 90 % 995,7 hPa 0,0 l/m 18,0 km/h (3 Bft) W 270 3,6 C 1,4 C
21.01.2012 17:52 5,0 C 89 % 995,8 hPa 0,0 l/m 6,8 km/h (2 Bft) S-SW 202 3,3 C 3,5 C
21.01.2012 17:57 5,0 C 89 % 995,6 hPa 0,0 l/m 8,3 km/h (2 Bft) W 270 3,3 C 3,1 C
21.01.2012 18:02 4,9 C 89 % 995,9 hPa 0,0 l/m 2,5 km/h (1 Bft) W-SW 247 3,2 C 4,9 C
21.01.2012 18:07 4,9 C 88 % 995,9 hPa 0,0 l/m 8,3 km/h (2 Bft) W 270 3,1 C 2,9 C
21.01.2012 18:12 4,9 C 88 % 995,9 hPa 0,0 l/m 6,1 km/h (2 Bft) W-SW 247 3,1 C 3,6 C
21.01.2012 18:17 4,9 C 88 % 995,8 hPa 0,0 l/m 11,2 km/h (2 Bft) W 270 3,1 C 2,3 C
21.01.2012 18:22 4,9 C 88 % 995,8 hPa 0,0 l/m 19,4 km/h (3 Bft) W-NW 292 3,1 C 1,0 C
21.01.2012 18:27 4,9 C 88 % 995,8 hPa 0,0 l/m 14,8 km/h (3 Bft) W 270 3,1 C 1,7 C
21.01.2012 18:32 4,9 C 88 % 995,7 hPa 0,0 l/m 13,0 km/h (3 Bft) W-SW 247 3,1 C 2,0 C
21.01.2012 18:37 4,9 C 88 % 995,8 hPa 0,0 l/m 11,9 km/h (2 Bft) W-NW 292 3,1 C 2,2 C
21.01.2012 18:42 4,9 C 88 % 995,7 hPa 0,0 l/m 16,9 km/h (3 Bft) W 270 3,1 C 1,3 C
21.01.2012 18:47 4,9 C 88 % 995,7 hPa 0,0 l/m 10,1 km/h (2 Bft) W 270 3,1 C 2,5 C
21.01.2012 18:52 4,9 C 88 % 995,7 hPa 0,0 l/m 10,8 km/h (2 Bft) W-NW 292 3,1 C 2,4 C
21.01.2012 18:57 4,9 C 87 % 995,5 hPa 0,0 l/m 6,8 km/h (2 Bft) W 270 2,9 C 3,4 C
21.01.2012 19:02 4,9 C 87 % 995,7 hPa 0,0 l/m 9,4 km/h (2 Bft) W-NW 292 2,9 C 2,7 C
21.01.2012 19:07 4,9 C 87 % 995,4 hPa 0,0 l/m 10,8 km/h (2 Bft) W-SW 247 2,9 C 2,4 C
21.01.2012 19:12 4,8 C 87 % 995,4 hPa 0,0 l/m 10,1 km/h (2 Bft) W 270 2,8 C 2,4 C
21.01.2012 19:17 4,8 C 87 % 995,1 hPa 0,0 l/m 7,6 km/h (2 Bft) W-NW 292 2,8 C 3,0 C
21.01.2012 19:22 4,8 C 88 % 995,3 hPa 0,0 l/m 4,0 km/h (1 Bft) W 270 3,0 C 4,8 C
21.01.2012 19:27 4,7 C 88 % 995,1 hPa 0,0 l/m 6,5 km/h (2 Bft) W-SW 247 2,9 C 3,2 C
21.01.2012 19:32 4,6 C 88 % 995,4 hPa 0,0 l/m 9,0 km/h (2 Bft) NW 315 2,8 C 2,4 C
21.01.2012 19:37 4,6 C 88 % 995,5 hPa 0,0 l/m 5,4 km/h (1 Bft) W 270 2,8 C 3,5 C
21.01.2012 19:42 4,6 C 88 % 995,6 hPa 0,0 l/m 11,2 km/h (2 Bft) S-SW 202 2,8 C 1,9 C
21.01.2012 19:47 4,7 C 88 % 995,4 hPa 0,0 l/m 13,7 km/h (3 Bft) NW 315 2,9 C 1,6 C
21.01.2012 19:52 4,7 C 88 % 995,4 hPa 0,0 l/m 19,8 km/h (3 Bft) W 270 2,9 C 0,7 C
21.01.2012 19:57 4,7 C 88 % 995,4 hPa 0,0 l/m 6,8 km/h (2 Bft) S-SW 202 2,9 C 3,1 C
21.01.2012 20:02 4,7 C 88 % 995,2 hPa 0,0 l/m 11,9 km/h (2 Bft) W 270 2,9 C 1,9 C
21.01.2012 20:07 4,6 C 88 % 995,3 hPa 0,0 l/m 14,4 km/h (3 Bft) W 270 2,8 C 1,4 C
21.01.2012 20:12 4,6 C 88 % 995,4 hPa 0,0 l/m 18,7 km/h (3 Bft) W-NW 292 2,8 C 0,7 C
21.01.2012 20:17 4,6 C 88 % 995,2 hPa 0,5 l/m 14,4 km/h (3 Bft) W-NW 292 2,8 C 1,4 C
21.01.2012 20:22 4,6 C 88 % 995,2 hPa 0,0 l/m 6,8 km/h (2 Bft) W-SW 247 2,8 C 3,0 C
21.01.2012 20:27 4,5 C 88 % 995,2 hPa 0,0 l/m 10,8 km/h (2 Bft) W-SW 247 2,7 C 1,9 C
21.01.2012 20:32 4,4 C 88 % 995,0 hPa 0,0 l/m 6,8 km/h (2 Bft) W 270 2,6 C 2,8 C
21.01.2012 20:37 4,4 C 88 % 995,1 hPa 0,0 l/m 15,8 km/h (3 Bft) W-SW 247 2,6 C 0,9 C
21.01.2012 20:42 4,4 C 88 % 995,1 hPa 0,0 l/m 8,3 km/h (2 Bft) W-SW 247 2,6 C 2,4 C
21.01.2012 20:47 4,4 C 88 % 995,2 hPa 0,0 l/m 10,1 km/h (2 Bft) W-NW 292 2,6 C 1,9 C
21.01.2012 20:52 4,4 C 88 % 995,3 hPa 0,0 l/m 6,1 km/h (2 Bft) W 270 2,6 C 3,0 C
21.01.2012 20:57 4,4 C 88 % 995,1 hPa 0,0 l/m 11,2 km/h (2 Bft) W-NW 292 2,6 C 1,7 C
21.01.2012 21:02 4,4 C 88 % 995,2 hPa 0,0 l/m 15,5 km/h (3 Bft) W 270 2,6 C 0,9 C
21.01.2012 21:07 4,4 C 88 % 995,3 hPa 0,0 l/m 5,0 km/h (1 Bft) W 270 2,6 C 3,4 C
21.01.2012 21:12 4,3 C 88 % 995,5 hPa 0,5 l/m 9,7 km/h (2 Bft) W-SW 247 2,5 C 1,9 C
21.01.2012 21:17 4,3 C 89 % 995,5 hPa 0,0 l/m 20,5 km/h (4 Bft) NW 315 2,7 C 0,1 C
21.01.2012 21:22 4,3 C 89 % 995,5 hPa 0,0 l/m 23,8 km/h (4 Bft) W 270 2,7 C -0,3 C
21.01.2012 21:27 4,3 C 88 % 995,4 hPa 0,0 l/m 29,2 km/h (5 Bft) W-NW 292 2,5 C -0,8 C
21.01.2012 21:32 4,3 C 88 % 995,6 hPa 0,0 l/m 18,7 km/h (3 Bft) W-NW 292 2,5 C 0,4 C
21.01.2012 21:37 4,2 C 88 % 995,8 hPa 0,0 l/m 18,7 km/h (3 Bft) W-SW 247 2,4 C 0,2 C
21.01.2012 21:42 4,1 C 88 % 995,8 hPa 0,0 l/m 14,8 km/h (3 Bft) NW 315 2,3 C 0,7 C
21.01.2012 21:47 4,1 C 88 % 995,8 hPa 0,0 l/m 16,9 km/h (3 Bft) W-NW 292 2,3 C 0,3 C
21.01.2012 21:52 4,1 C 88 % 995,8 hPa 0,0 l/m 8,6 km/h (2 Bft) W-SW 247 2,3 C 1,9 C
21.01.2012 21:57 4,1 C 88 % 995,6 hPa 0,0 l/m 15,1 km/h (3 Bft) W 270 2,3 C 0,6 C
21.01.2012 22:02 3,9 C 88 % 995,6 hPa 0,0 l/m 7,2 km/h (2 Bft) W-NW 292 2,1 C 2,1 C
21.01.2012 22:07 3,9 C 88 % 995,6 hPa 0,0 l/m 9,4 km/h (2 Bft) W-NW 292 2,1 C 1,5 C
21.01.2012 22:12 3,9 C 88 % 995,7 hPa 0,0 l/m 7,9 km/h (2 Bft) W-NW 292 2,1 C 1,9 C
21.01.2012 22:17 3,9 C 89 % 995,8 hPa 0,0 l/m 6,5 km/h (2 Bft) W 270 2,3 C 2,3 C
21.01.2012 22:22 3,8 C 89 % 995,9 hPa 0,0 l/m 6,5 km/h (2 Bft) W 270 2,2 C 2,2 C
21.01.2012 22:27 3,8 C 89 % 996,0 hPa 0,0 l/m 23,4 km/h (4 Bft) W-NW 292 2,2 C -0,9 C
21.01.2012 22:32 3,8 C 89 % 996,1 hPa 0,0 l/m 26,3 km/h (4 Bft) W-NW 292 2,2 C -1,2 C
21.01.2012 22:37 3,8 C 89 % 996,2 hPa 0,5 l/m 21,2 km/h (4 Bft) W-NW 292 2,2 C -0,6 C
21.01.2012 22:42 3,8 C 89 % 996,1 hPa 0,0 l/m 13,7 km/h (3 Bft) W 270 2,2 C 0,5 C
21.01.2012 22:47 3,8 C 89 % 996,3 hPa 0,0 l/m 11,9 km/h (2 Bft) W 270 2,2 C 0,8 C
21.01.2012 22:52 3,8 C 89 % 996,5 hPa 0,0 l/m 9,0 km/h (2 Bft) W-NW 292 2,2 C 1,5 C
21.01.2012 22:57 3,8 C 89 % 996,5 hPa 0,0 l/m 9,4 km/h (2 Bft) W-NW 292 2,2 C 1,4 C
21.01.2012 23:02 3,8 C 89 % 996,4 hPa 0,0 l/m 3,2 km/h (1 Bft) W-NW 292 2,2 C 3,8 C
21.01.2012 23:07 3,7 C 89 % 996,3 hPa 0,0 l/m 7,9 km/h (2 Bft) W 270 2,1 C 1,6 C
21.01.2012 23:12 3,7 C 89 % 996,4 hPa 0,0 l/m 12,2 km/h (2 Bft) W 270 2,1 C 0,6 C
21.01.2012 23:17 3,6 C 89 % 996,5 hPa 0,0 l/m 11,2 km/h (2 Bft) W-NW 292 2,0 C 0,7 C
21.01.2012 23:22 3,6 C 89 % 996,4 hPa 0,0 l/m 5,8 km/h (2 Bft) W 270 2,0 C 2,2 C
21.01.2012 23:27 3,6 C 90 % 996,4 hPa 0,0 l/m 6,5 km/h (2 Bft) W 270 2,1 C 1,9 C
21.01.2012 23:32 3,6 C 90 % 996,5 hPa 0,0 l/m 6,5 km/h (2 Bft) W-SW 247 2,1 C 1,9 C
21.01.2012 23:37 3,6 C 90 % 996,5 hPa 0,0 l/m 12,2 km/h (2 Bft) W-SW 247 2,1 C 0,5 C
21.01.2012 23:42 3,8 C 90 % 996,5 hPa 0,0 l/m 11,9 km/h (2 Bft) W-SW 247 2,3 C 0,8 C
21.01.2012 23:47 3,8 C 90 % 996,6 hPa 0,0 l/m 10,8 km/h (2 Bft) W 270 2,3 C 1,0 C
21.01.2012 23:52 3,8 C 90 % 996,5 hPa 0,0 l/m 14,4 km/h (3 Bft) W 270 2,3 C 0,4 C
21.01.2012 23:57 3,9 C 90 % 996,4 hPa 0,0 l/m 11,2 km/h (2 Bft) W 270 2,4 C 1,1 C
_ Min-Zeit 00:02 09:57 20:32 - 00:32 - - 00:02 13:02
Minimum _ 1,5 C 87 % 995,0 hPa - 0,0 km/h (0 Bft) - - -0,1 C -4,0 C
_ Max-Zeit 17:12 16:17 02:17 10:47 16:52 - - 17:12 18:02
Maximum _ 5,1 C 92 % 1012,4 hPa 0,5 l/m 33,8 km/h
W-NW (5 Bft)
- - 3,8 C 4,9 C
Durchschnitt _ 3,2 C 89 % 1003,3 hPa #4,7 l/m 12,9 km/h (3 Bft) W - 1,6 C 0,1 C
(c) by David Heller